sensor_id;sensor_type;location;lat;lon;timestamp;pressure;altitude;pressure_sealevel;temperature;humidity
51999;BME280;38015;50.924;11.598;2023-01-15T00:01:22;97840.77;;;21.88;29.23
51999;BME280;38015;50.924;11.598;2023-01-15T00:03:49;97839.72;;;21.93;29.13
51999;BME280;38015;50.924;11.598;2023-01-15T00:06:20;97825.46;;;21.94;29.14
51999;BME280;38015;50.924;11.598;2023-01-15T00:08:50;97824.18;;;21.90;29.22
51999;BME280;38015;50.924;11.598;2023-01-15T00:11:21;97815.32;;;22.00;29.01
51999;BME280;38015;50.924;11.598;2023-01-15T00:13:51;97816.34;;;21.98;29.08
51999;BME280;38015;50.924;11.598;2023-01-15T00:16:23;97818.14;;;21.83;29.33
51999;BME280;38015;50.924;11.598;2023-01-15T00:18:52;97815.36;;;21.93;29.20
51999;BME280;38015;50.924;11.598;2023-01-15T00:21:23;97812.55;;;21.93;29.23
51999;BME280;38015;50.924;11.598;2023-01-15T00:23:52;97808.24;;;21.99;29.16
51999;BME280;38015;50.924;11.598;2023-01-15T00:26:27;97802.63;;;21.94;29.25
51999;BME280;38015;50.924;11.598;2023-01-15T00:28:53;97798.43;;;21.91;29.28
51999;BME280;38015;50.924;11.598;2023-01-15T00:31:24;97787.92;;;21.92;29.28
51999;BME280;38015;50.924;11.598;2023-01-15T00:33:54;97782.75;;;21.86;29.43
51999;BME280;38015;50.924;11.598;2023-01-15T00:36:25;97774.34;;;21.84;29.50
51999;BME280;38015;50.924;11.598;2023-01-15T00:38:55;97786.69;;;21.83;29.54
51999;BME280;38015;50.924;11.598;2023-01-15T00:41:26;97778.40;;;21.84;29.57
51999;BME280;38015;50.924;11.598;2023-01-15T00:43:57;97767.21;;;21.85;29.60
51999;BME280;38015;50.924;11.598;2023-01-15T00:46:27;97774.16;;;21.74;29.78
51999;BME280;38015;50.924;11.598;2023-01-15T00:48:57;97771.48;;;21.84;29.66
51999;BME280;38015;50.924;11.598;2023-01-15T00:51:28;97768.81;;;21.83;29.66
51999;BME280;38015;50.924;11.598;2023-01-15T00:53:58;97759.11;;;21.64;30.00
51999;BME280;38015;50.924;11.598;2023-01-15T00:56:29;97760.47;;;21.73;29.92
51999;BME280;38015;50.924;11.598;2023-01-15T00:59:00;97747.86;;;21.74;29.89
51999;BME280;38015;50.924;11.598;2023-01-15T01:01:30;97757.00;;;21.74;29.95
51999;BME280;38015;50.924;11.598;2023-01-15T01:04:00;97759.95;;;21.76;29.93
51999;BME280;38015;50.924;11.598;2023-01-15T01:06:30;97759.71;;;21.68;30.15
51999;BME280;38015;50.924;11.598;2023-01-15T01:09:01;97762.59;;;21.79;29.95
51999;BME280;38015;50.924;11.598;2023-01-15T01:11:32;97761.06;;;21.83;29.89
51999;BME280;38015;50.924;11.598;2023-01-15T01:14:02;97760.78;;;21.81;29.95
51999;BME280;38015;50.924;11.598;2023-01-15T01:16:34;97758.11;;;21.74;30.07
51999;BME280;38015;50.924;11.598;2023-01-15T01:19:05;97758.09;;;21.74;30.09
51999;BME280;38015;50.924;11.598;2023-01-15T01:21:34;97766.59;;;21.69;30.22
51999;BME280;38015;50.924;11.598;2023-01-15T01:24:04;97767.71;;;21.75;30.15
51999;BME280;38015;50.924;11.598;2023-01-15T01:26:34;97767.27;;;21.78;30.13
51999;BME280;38015;50.924;11.598;2023-01-15T01:29:05;97764.01;;;21.72;30.26
51999;BME280;38015;50.924;11.598;2023-01-15T01:31:35;97765.05;;;21.73;30.27
51999;BME280;38015;50.924;11.598;2023-01-15T01:34:06;97758.88;;;21.76;30.21
51999;BME280;38015;50.924;11.598;2023-01-15T01:36:38;97754.39;;;21.62;30.45
51999;BME280;38015;50.924;11.598;2023-01-15T01:39:09;97757.34;;;21.74;30.33
51999;BME280;38015;50.924;11.598;2023-01-15T01:41:37;97750.84;;;21.82;30.15
51999;BME280;38015;50.924;11.598;2023-01-15T01:46:38;97735.35;;;21.95;29.95
51999;BME280;38015;50.924;11.598;2023-01-15T01:49:10;97726.08;;;21.93;30.03
51999;BME280;38015;50.924;11.598;2023-01-15T01:51:42;97716.98;;;21.96;29.92
51999;BME280;38015;50.924;11.598;2023-01-15T01:54:13;97712.45;;;21.93;29.97
51999;BME280;38015;50.924;11.598;2023-01-15T01:56:40;97701.00;;;21.90;30.02
51999;BME280;38015;50.924;11.598;2023-01-15T01:59:10;97704.02;;;21.65;30.54
51999;BME280;38015;50.924;11.598;2023-01-15T02:01:41;97698.63;;;21.83;30.26
51999;BME280;38015;50.924;11.598;2023-01-15T02:04:12;97688.76;;;21.71;30.44
51999;BME280;38015;50.924;11.598;2023-01-15T02:06:42;97687.25;;;21.72;30.44
51999;BME280;38015;50.924;11.598;2023-01-15T02:09:12;97689.54;;;21.70;30.52
51999;BME280;38015;50.924;11.598;2023-01-15T02:11:42;97683.40;;;21.94;30.10
51999;BME280;38015;50.924;11.598;2023-01-15T02:14:15;97692.32;;;21.96;30.05
51999;BME280;38015;50.924;11.598;2023-01-15T02:16:48;97695.19;;;22.00;29.95
51999;BME280;38015;50.924;11.598;2023-01-15T02:19:21;97693.65;;;22.00;29.96
51999;BME280;38015;50.924;11.598;2023-01-15T02:21:51;97692.79;;;22.04;29.90
51999;BME280;38015;50.924;11.598;2023-01-15T02:24:22;97680.30;;;21.97;30.01
51999;BME280;38015;50.924;11.598;2023-01-15T02:26:59;97679.74;;;21.98;30.03
51999;BME280;38015;50.924;11.598;2023-01-15T02:29:21;97682.12;;;22.06;29.80
51999;BME280;38015;50.924;11.598;2023-01-15T02:31:49;97669.71;;;22.04;29.90
51999;BME280;38015;50.924;11.598;2023-01-15T02:34:23;97668.91;;;21.96;30.08
51999;BME280;38015;50.924;11.598;2023-01-15T02:36:50;97672.35;;;21.93;30.16
51999;BME280;38015;50.924;11.598;2023-01-15T02:39:18;97665.75;;;22.06;29.91
51999;BME280;38015;50.924;11.598;2023-01-15T02:41:51;97671.83;;;22.02;29.97
51999;BME280;38015;50.924;11.598;2023-01-15T02:44:21;97668.56;;;22.02;29.98
51999;BME280;38015;50.924;11.598;2023-01-15T02:46:49;97664.69;;;21.99;30.03
51999;BME280;38015;50.924;11.598;2023-01-15T02:49:21;97665.26;;;22.01;30.02
51999;BME280;38015;50.924;11.598;2023-01-15T02:51:53;97660.62;;;21.96;30.08
51999;BME280;38015;50.924;11.598;2023-01-15T02:54:22;97659.42;;;21.97;30.06
51999;BME280;38015;50.924;11.598;2023-01-15T02:56:52;97665.15;;;21.90;30.22
51999;BME280;38015;50.924;11.598;2023-01-15T02:59:26;97662.54;;;21.96;30.12
51999;BME280;38015;50.924;11.598;2023-01-15T03:01:55;97662.09;;;21.97;30.08
51999;BME280;38015;50.924;11.598;2023-01-15T03:04:28;97662.91;;;21.91;30.18
51999;BME280;38015;50.924;11.598;2023-01-15T03:06:55;97655.18;;;21.94;30.18
51999;BME280;38015;50.924;11.598;2023-01-15T03:09:24;97646.67;;;21.96;30.15
51999;BME280;38015;50.924;11.598;2023-01-15T03:12:00;97649.17;;;21.96;30.17
51999;BME280;38015;50.924;11.598;2023-01-15T03:14:29;97639.96;;;21.95;30.22
51999;BME280;38015;50.924;11.598;2023-01-15T03:16:57;97642.81;;;21.88;30.34
51999;BME280;38015;50.924;11.598;2023-01-15T03:19:29;97640.38;;;21.79;30.50
51999;BME280;38015;50.924;11.598;2023-01-15T03:21:58;97643.30;;;21.91;30.35
51999;BME280;38015;50.924;11.598;2023-01-15T03:24:31;97641.01;;;21.92;30.37
51999;BME280;38015;50.924;11.598;2023-01-15T03:26:57;97642.64;;;21.99;30.22
51999;BME280;38015;50.924;11.598;2023-01-15T03:29:30;97641.86;;;21.98;30.25
51999;BME280;38015;50.924;11.598;2023-01-15T03:31:58;97633.88;;;22.01;30.17
51999;BME280;38015;50.924;11.598;2023-01-15T03:34:33;97637.81;;;21.92;30.32
51999;BME280;38015;50.924;11.598;2023-01-15T03:36:59;97637.67;;;21.83;30.52
51999;BME280;38015;50.924;11.598;2023-01-15T03:39:29;97637.81;;;21.83;30.55
51999;BME280;38015;50.924;11.598;2023-01-15T03:42:09;97641.33;;;22.00;30.27
51999;BME280;38015;50.924;11.598;2023-01-15T03:44:38;97643.19;;;21.95;30.33
51999;BME280;38015;50.924;11.598;2023-01-15T03:47:08;97648.01;;;22.02;30.22
51999;BME280;38015;50.924;11.598;2023-01-15T03:49:39;97694.78;;;22.06;30.14
51999;BME280;38015;50.924;11.598;2023-01-15T03:52:06;97726.11;;;22.04;29.60
51999;BME280;38015;50.924;11.598;2023-01-15T03:54:37;97737.40;;;21.93;29.99
51999;BME280;38015;50.924;11.598;2023-01-15T03:57:05;97742.65;;;21.99;30.09
51999;BME280;38015;50.924;11.598;2023-01-15T03:59:36;97742.85;;;22.02;29.83
51999;BME280;38015;50.924;11.598;2023-01-15T04:02:06;97734.60;;;21.99;29.79
51999;BME280;38015;50.924;11.598;2023-01-15T04:04:34;97752.45;;;21.88;30.08
51999;BME280;38015;50.924;11.598;2023-01-15T04:07:04;97753.85;;;21.99;29.96
51999;BME280;38015;50.924;11.598;2023-01-15T04:09:37;97749.37;;;21.98;29.83
51999;BME280;38015;50.924;11.598;2023-01-15T04:12:06;97751.27;;;21.96;29.88
51999;BME280;38015;50.924;11.598;2023-01-15T04:14:36;97750.26;;;21.90;29.99
51999;BME280;38015;50.924;11.598;2023-01-15T04:17:06;97754.26;;;21.94;29.94
51999;BME280;38015;50.924;11.598;2023-01-15T04:19:37;97747.65;;;21.95;29.94
51999;BME280;38015;50.924;11.598;2023-01-15T04:22:08;97753.77;;;21.84;30.09
51999;BME280;38015;50.924;11.598;2023-01-15T04:24:37;97756.80;;;21.66;30.40
51999;BME280;38015;50.924;11.598;2023-01-15T04:27:08;97760.68;;;21.74;30.25
51999;BME280;38015;50.924;11.598;2023-01-15T04:29:38;97756.91;;;21.71;30.30
51999;BME280;38015;50.924;11.598;2023-01-15T04:32:09;97764.95;;;21.70;30.29
51999;BME280;38015;50.924;11.598;2023-01-15T04:34:40;97762.38;;;21.66;30.41
51999;BME280;38015;50.924;11.598;2023-01-15T04:37:10;97758.39;;;21.78;30.19
51999;BME280;38015;50.924;11.598;2023-01-15T04:39:41;97757.98;;;21.51;30.76
51999;BME280;38015;50.924;11.598;2023-01-15T04:42:11;97759.19;;;21.78;30.26
51999;BME280;38015;50.924;11.598;2023-01-15T04:44:41;97758.51;;;21.79;30.29
51999;BME280;38015;50.924;11.598;2023-01-15T04:47:12;97750.74;;;21.97;30.00
51999;BME280;38015;50.924;11.598;2023-01-15T04:49:42;97754.02;;;21.76;30.22
51999;BME280;38015;50.924;11.598;2023-01-15T04:52:14;97766.36;;;21.47;30.79
51999;BME280;38015;50.924;11.598;2023-01-15T04:54:43;97785.13;;;21.66;30.47
51999;BME280;38015;50.924;11.598;2023-01-15T04:57:14;97784.05;;;21.73;30.30
51999;BME280;38015;50.924;11.598;2023-01-15T04:59:44;97785.24;;;21.83;30.11
51999;BME280;38015;50.924;11.598;2023-01-15T05:02:15;97782.79;;;21.73;30.28
51999;BME280;38015;50.924;11.598;2023-01-15T05:04:45;97775.99;;;21.67;30.38
51999;BME280;38015;50.924;11.598;2023-01-15T05:07:16;97775.42;;;21.72;30.31
51999;BME280;38015;50.924;11.598;2023-01-15T05:09:46;97778.91;;;21.65;30.48
51999;BME280;38015;50.924;11.598;2023-01-15T05:12:17;97788.17;;;21.68;30.42
51999;BME280;38015;50.924;11.598;2023-01-15T05:14:47;97779.60;;;21.71;30.38
51999;BME280;38015;50.924;11.598;2023-01-15T05:17:18;97783.34;;;21.75;30.35
51999;BME280;38015;50.924;11.598;2023-01-15T05:19:48;97791.58;;;21.67;30.47
51999;BME280;38015;50.924;11.598;2023-01-15T05:22:18;97801.68;;;21.52;30.73
51999;BME280;38015;50.924;11.598;2023-01-15T05:24:49;97798.86;;;21.77;30.34
51999;BME280;38015;50.924;11.598;2023-01-15T05:27:20;97797.77;;;21.54;30.69
51999;BME280;38015;50.924;11.598;2023-01-15T05:29:50;97801.89;;;21.47;30.80
51999;BME280;38015;50.924;11.598;2023-01-15T05:32:20;97802.99;;;21.58;30.61
51999;BME280;38015;50.924;11.598;2023-01-15T05:34:51;97812.95;;;21.72;30.29
51999;BME280;38015;50.924;11.598;2023-01-15T05:37:21;97838.88;;;21.78;30.09
51999;BME280;38015;50.924;11.598;2023-01-15T05:39:52;97846.50;;;21.80;30.05
51999;BME280;38015;50.924;11.598;2023-01-15T05:42:22;97851.46;;;21.67;30.33
51999;BME280;38015;50.924;11.598;2023-01-15T05:44:55;97858.04;;;21.84;30.13
51999;BME280;38015;50.924;11.598;2023-01-15T05:47:23;97855.36;;;21.78;30.13
51999;BME280;38015;50.924;11.598;2023-01-15T05:49:54;97860.46;;;21.76;30.24
51999;BME280;38015;50.924;11.598;2023-01-15T05:52:24;97858.46;;;21.80;30.14
51999;BME280;38015;50.924;11.598;2023-01-15T05:54:54;97855.19;;;21.75;30.28
51999;BME280;38015;50.924;11.598;2023-01-15T05:57:25;97869.92;;;21.61;30.55
51999;BME280;38015;50.924;11.598;2023-01-15T05:59:56;97876.54;;;21.72;30.21
51999;BME280;38015;50.924;11.598;2023-01-15T06:02:26;97881.06;;;21.78;30.20
51999;BME280;38015;50.924;11.598;2023-01-15T06:04:56;97889.98;;;21.79;30.19
51999;BME280;38015;50.924;11.598;2023-01-15T06:07:27;97886.16;;;21.70;30.34
51999;BME280;38015;50.924;11.598;2023-01-15T06:09:57;97886.51;;;21.71;30.29
51999;BME280;38015;50.924;11.598;2023-01-15T06:12:28;97889.68;;;21.73;30.30
51999;BME280;38015;50.924;11.598;2023-01-15T06:14:58;97892.52;;;21.78;30.20
51999;BME280;38015;50.924;11.598;2023-01-15T06:17:29;97900.50;;;21.66;30.40
51999;BME280;38015;50.924;11.598;2023-01-15T06:19:59;97906.81;;;21.83;30.10
51999;BME280;38015;50.924;11.598;2023-01-15T06:22:30;97922.16;;;21.52;30.75
51999;BME280;38015;50.924;11.598;2023-01-15T06:25:00;97930.51;;;21.66;30.41
51999;BME280;38015;50.924;11.598;2023-01-15T06:27:31;97925.69;;;21.78;30.17
51999;BME280;38015;50.924;11.598;2023-01-15T06:30:01;97924.29;;;21.64;30.48
51999;BME280;38015;50.924;11.598;2023-01-15T06:32:31;97914.71;;;21.89;30.06
51999;BME280;38015;50.924;11.598;2023-01-15T06:35:03;97905.60;;;21.72;30.36
51999;BME280;38015;50.924;11.598;2023-01-15T06:37:32;97918.87;;;21.60;30.59
51999;BME280;38015;50.924;11.598;2023-01-15T06:40:04;97938.29;;;21.68;30.42
51999;BME280;38015;50.924;11.598;2023-01-15T06:42:34;97946.89;;;21.80;30.14
51999;BME280;38015;50.924;11.598;2023-01-15T06:45:05;97941.03;;;21.76;30.26
51999;BME280;38015;50.924;11.598;2023-01-15T06:47:34;97929.54;;;21.77;30.30
51999;BME280;38015;50.924;11.598;2023-01-15T06:50:05;97939.25;;;21.62;30.55
51999;BME280;38015;50.924;11.598;2023-01-15T06:52:35;97950.11;;;21.79;30.25
51999;BME280;38015;50.924;11.598;2023-01-15T06:55:06;97946.49;;;21.65;30.43
51999;BME280;38015;50.924;11.598;2023-01-15T06:57:37;97953.88;;;21.57;30.60
51999;BME280;38015;50.924;11.598;2023-01-15T07:00:08;97956.87;;;21.63;30.49
51999;BME280;38015;50.924;11.598;2023-01-15T07:02:37;97970.78;;;21.60;30.55
51999;BME280;38015;50.924;11.598;2023-01-15T07:05:08;97963.82;;;21.68;30.43
51999;BME280;38015;50.924;11.598;2023-01-15T07:07:38;97973.57;;;21.67;30.43
51999;BME280;38015;50.924;11.598;2023-01-15T07:10:10;97961.48;;;21.83;30.11
51999;BME280;38015;50.924;11.598;2023-01-15T07:12:39;97967.86;;;21.70;30.38
51999;BME280;38015;50.924;11.598;2023-01-15T07:15:10;97975.56;;;21.80;30.19
51999;BME280;38015;50.924;11.598;2023-01-15T07:17:40;97971.58;;;21.86;30.13
51999;BME280;38015;50.924;11.598;2023-01-15T07:20:11;97977.12;;;21.76;30.32
51999;BME280;38015;50.924;11.598;2023-01-15T07:22:41;97987.34;;;21.89;30.08
51999;BME280;38015;50.924;11.598;2023-01-15T07:25:11;97977.25;;;21.67;30.51
51999;BME280;38015;50.924;11.598;2023-01-15T07:27:42;97981.72;;;21.90;30.05
51999;BME280;38015;50.924;11.598;2023-01-15T07:30:13;97989.77;;;21.68;30.44
51999;BME280;38015;50.924;11.598;2023-01-15T07:32:43;97993.95;;;21.80;30.23
51999;BME280;38015;50.924;11.598;2023-01-15T07:35:14;97996.08;;;21.90;30.06
51999;BME280;38015;50.924;11.598;2023-01-15T07:37:44;98012.80;;;21.91;30.05
51999;BME280;38015;50.924;11.598;2023-01-15T07:40:14;98014.88;;;21.80;30.22
51999;BME280;38015;50.924;11.598;2023-01-15T07:42:45;97990.19;;;21.90;30.07
51999;BME280;38015;50.924;11.598;2023-01-15T07:45:16;98000.51;;;21.95;29.96
51999;BME280;38015;50.924;11.598;2023-01-15T07:47:45;98023.29;;;21.96;29.95
51999;BME280;38015;50.924;11.598;2023-01-15T07:50:18;98017.56;;;21.98;29.92
51999;BME280;38015;50.924;11.598;2023-01-15T07:52:46;98015.89;;;21.95;29.94
51999;BME280;38015;50.924;11.598;2023-01-15T07:55:17;98010.64;;;21.79;30.20
51999;BME280;38015;50.924;11.598;2023-01-15T07:57:47;98015.88;;;22.03;29.76
51999;BME280;38015;50.924;11.598;2023-01-15T08:00:21;98018.41;;;21.93;29.96
51999;BME280;38015;50.924;11.598;2023-01-15T08:02:48;98016.72;;;21.97;29.90
51999;BME280;38015;50.924;11.598;2023-01-15T08:05:19;98014.63;;;21.92;29.97
51999;BME280;38015;50.924;11.598;2023-01-15T08:07:49;98023.89;;;21.97;29.87
51999;BME280;38015;50.924;11.598;2023-01-15T08:10:20;98023.36;;;21.93;29.94
51999;BME280;38015;50.924;11.598;2023-01-15T08:12:50;98018.65;;;21.99;29.84
51999;BME280;38015;50.924;11.598;2023-01-15T08:15:21;98007.42;;;21.94;29.90
51999;BME280;38015;50.924;11.598;2023-01-15T08:17:52;97994.67;;;21.98;29.84
51999;BME280;38015;50.924;11.598;2023-01-15T08:20:24;98003.08;;;21.96;29.84
51999;BME280;38015;50.924;11.598;2023-01-15T08:22:52;98002.11;;;22.07;29.63
51999;BME280;38015;50.924;11.598;2023-01-15T08:25:23;97993.44;;;22.05;29.67
51999;BME280;38015;50.924;11.598;2023-01-15T08:27:53;98001.58;;;22.00;29.72
51999;BME280;38015;50.924;11.598;2023-01-15T08:30:24;98017.34;;;22.08;29.62
51999;BME280;38015;50.924;11.598;2023-01-15T08:32:58;98026.53;;;21.93;29.89
51999;BME280;38015;50.924;11.598;2023-01-15T08:35:24;98025.67;;;22.01;29.75
51999;BME280;38015;50.924;11.598;2023-01-15T08:37:55;98034.81;;;22.04;29.69
51999;BME280;38015;50.924;11.598;2023-01-15T08:40:25;98042.81;;;21.99;29.78
51999;BME280;38015;50.924;11.598;2023-01-15T08:42:56;98046.50;;;22.01;29.71
51999;BME280;38015;50.924;11.598;2023-01-15T08:45:30;98032.75;;;21.96;29.79
51999;BME280;38015;50.924;11.598;2023-01-15T08:47:57;98029.95;;;22.09;29.54
51999;BME280;38015;50.924;11.598;2023-01-15T08:50:27;98039.96;;;22.00;29.70
51999;BME280;38015;50.924;11.598;2023-01-15T08:52:58;98056.48;;;21.81;30.01
51999;BME280;38015;50.924;11.598;2023-01-15T08:55:28;98051.13;;;21.93;29.81
51999;BME280;38015;50.924;11.598;2023-01-15T08:57:58;98050.25;;;21.80;30.01
51999;BME280;38015;50.924;11.598;2023-01-15T09:00:29;98045.94;;;21.76;30.01
51999;BME280;38015;50.924;11.598;2023-01-15T09:03:00;98050.05;;;22.02;29.58
51999;BME280;38015;50.924;11.598;2023-01-15T09:05:30;98053.70;;;21.90;29.78
51999;BME280;38015;50.924;11.598;2023-01-15T09:08:00;98062.34;;;21.91;29.78
51999;BME280;38015;50.924;11.598;2023-01-15T09:10:32;98058.17;;;21.94;29.72
51999;BME280;38015;50.924;11.598;2023-01-15T09:13:02;98056.82;;;22.07;29.46
51999;BME280;38015;50.924;11.598;2023-01-15T09:15:32;98057.57;;;22.04;29.49
51999;BME280;38015;50.924;11.598;2023-01-15T09:18:02;98060.11;;;22.08;29.42
51999;BME280;38015;50.924;11.598;2023-01-15T09:20:33;98067.47;;;22.08;29.38
51999;BME280;38015;50.924;11.598;2023-01-15T09:23:03;98074.37;;;22.06;29.40
51999;BME280;38015;50.924;11.598;2023-01-15T09:25:34;98069.79;;;21.96;29.54
51999;BME280;38015;50.924;11.598;2023-01-15T09:28:04;98073.46;;;22.09;29.31
51999;BME280;38015;50.924;11.598;2023-01-15T09:30:35;98076.03;;;22.08;29.31
51999;BME280;38015;50.924;11.598;2023-01-15T09:33:05;98080.57;;;22.06;29.31
51999;BME280;38015;50.924;11.598;2023-01-15T09:35:36;98080.98;;;21.76;29.83
51999;BME280;38015;50.924;11.598;2023-01-15T09:38:06;98085.89;;;22.02;29.36
51999;BME280;38015;50.924;11.598;2023-01-15T09:40:46;98081.80;;;21.86;29.62
51999;BME280;38015;50.924;11.598;2023-01-15T09:43:15;98080.67;;;21.95;29.47
51999;BME280;38015;50.924;11.598;2023-01-15T09:45:44;98065.03;;;22.13;29.11
51999;BME280;38015;50.924;11.598;2023-01-15T09:48:17;98070.82;;;22.05;29.24
51999;BME280;38015;50.924;11.598;2023-01-15T09:50:50;98064.66;;;22.06;29.19
51999;BME280;38015;50.924;11.598;2023-01-15T09:53:19;98073.62;;;22.09;29.12
51999;BME280;38015;50.924;11.598;2023-01-15T09:55:45;98086.96;;;22.14;29.02
51999;BME280;38015;50.924;11.598;2023-01-15T09:58:10;98087.57;;;22.04;29.16
51999;BME280;38015;50.924;11.598;2023-01-15T10:00:45;98096.49;;;22.12;28.96
51999;BME280;38015;50.924;11.598;2023-01-15T10:03:22;98097.56;;;22.09;28.97
51999;BME280;38015;50.924;11.598;2023-01-15T10:05:44;98103.84;;;22.05;29.02
51999;BME280;38015;50.924;11.598;2023-01-15T10:08:14;98104.13;;;22.15;28.80
51999;BME280;38015;50.924;11.598;2023-01-15T10:10:45;98110.17;;;22.08;28.90
51999;BME280;38015;50.924;11.598;2023-01-15T10:13:20;98111.79;;;22.10;28.83
51999;BME280;38015;50.924;11.598;2023-01-15T10:15:45;98115.11;;;22.13;28.75
51999;BME280;38015;50.924;11.598;2023-01-15T10:18:17;98113.10;;;22.12;28.72
51999;BME280;38015;50.924;11.598;2023-01-15T10:20:52;98125.13;;;22.03;28.85
51999;BME280;38015;50.924;11.598;2023-01-15T10:23:26;98115.70;;;22.03;28.86
51999;BME280;38015;50.924;11.598;2023-01-15T10:25:47;98121.28;;;22.13;28.68
51999;BME280;38015;50.924;11.598;2023-01-15T10:28:19;98121.73;;;22.09;28.68
51999;BME280;38015;50.924;11.598;2023-01-15T10:30:49;98124.66;;;22.10;28.67
51999;BME280;38015;50.924;11.598;2023-01-15T10:33:32;98134.85;;;22.13;28.57
51999;BME280;38015;50.924;11.598;2023-01-15T10:35:53;98136.49;;;22.07;28.66
51999;BME280;38015;50.924;11.598;2023-01-15T10:38:23;98146.09;;;22.00;28.78
51999;BME280;38015;50.924;11.598;2023-01-15T10:41:05;98143.84;;;22.12;28.52
51999;BME280;38015;50.924;11.598;2023-01-15T10:43:21;98145.47;;;22.20;28.35
51999;BME280;38015;50.924;11.598;2023-01-15T10:45:52;98149.06;;;22.20;28.31
51999;BME280;38015;50.924;11.598;2023-01-15T10:48:27;98155.82;;;22.17;28.37
51999;BME280;38015;50.924;11.598;2023-01-15T10:50:50;98155.68;;;22.17;28.39
51999;BME280;38015;50.924;11.598;2023-01-15T10:53:28;98145.75;;;22.13;28.45
51999;BME280;38015;50.924;11.598;2023-01-15T10:55:54;98142.34;;;22.18;28.35
51999;BME280;38015;50.924;11.598;2023-01-15T10:58:28;98144.07;;;22.17;28.37
51999;BME280;38015;50.924;11.598;2023-01-15T11:00:56;98149.08;;;22.16;28.38
51999;BME280;38015;50.924;11.598;2023-01-15T11:03:30;98142.85;;;22.10;28.47
51999;BME280;38015;50.924;11.598;2023-01-15T11:05:52;98135.96;;;22.13;28.40
51999;BME280;38015;50.924;11.598;2023-01-15T11:08:25;98146.82;;;22.16;28.37
51999;BME280;38015;50.924;11.598;2023-01-15T11:10:54;98146.73;;;22.17;28.31
51999;BME280;38015;50.924;11.598;2023-01-15T11:13:25;98145.22;;;22.07;28.50
51999;BME280;38015;50.924;11.598;2023-01-15T11:15:54;98136.67;;;22.07;28.47
51999;BME280;38015;50.924;11.598;2023-01-15T11:18:27;98141.44;;;22.16;28.28
51999;BME280;38015;50.924;11.598;2023-01-15T11:20:55;98133.20;;;22.13;28.29
51999;BME280;38015;50.924;11.598;2023-01-15T11:23:26;98128.83;;;22.14;28.28
51999;BME280;38015;50.924;11.598;2023-01-15T11:25:58;98118.55;;;22.15;28.19
51999;BME280;38015;50.924;11.598;2023-01-15T11:28:32;98119.19;;;22.10;28.28
51999;BME280;38015;50.924;11.598;2023-01-15T11:30:57;98129.58;;;22.12;28.23
51999;BME280;38015;50.924;11.598;2023-01-15T11:33:28;98127.73;;;22.10;28.23
51999;BME280;38015;50.924;11.598;2023-01-15T11:36:00;98125.91;;;22.13;28.14
51999;BME280;38015;50.924;11.598;2023-01-15T11:38:30;98132.09;;;22.08;28.23
51999;BME280;38015;50.924;11.598;2023-01-15T11:41:00;98139.75;;;22.02;28.33
51999;BME280;38015;50.924;11.598;2023-01-15T11:43:30;98146.62;;;22.11;28.12
51999;BME280;38015;50.924;11.598;2023-01-15T11:46:00;98140.65;;;22.12;28.07
51999;BME280;38015;50.924;11.598;2023-01-15T11:48:41;98144.45;;;22.11;28.11
51999;BME280;38015;50.924;11.598;2023-01-15T11:51:05;98137.00;;;22.15;28.03
51999;BME280;38015;50.924;11.598;2023-01-15T11:53:33;98143.74;;;22.09;28.07
51999;BME280;38015;50.924;11.598;2023-01-15T11:56:04;98136.67;;;22.18;27.84
51999;BME280;38015;50.924;11.598;2023-01-15T11:58:39;98125.09;;;22.16;27.83
51999;BME280;38015;50.924;11.598;2023-01-15T12:01:02;98132.00;;;22.12;27.96
51999;BME280;38015;50.924;11.598;2023-01-15T12:03:34;98129.37;;;22.11;27.92
51999;BME280;38015;50.924;11.598;2023-01-15T12:06:07;98129.48;;;22.13;27.83
51999;BME280;38015;50.924;11.598;2023-01-15T12:08:42;98121.49;;;22.11;27.86
51999;BME280;38015;50.924;11.598;2023-01-15T12:11:13;98111.84;;;22.14;27.75
51999;BME280;38015;50.924;11.598;2023-01-15T12:13:41;98104.73;;;22.09;27.80
51999;BME280;38015;50.924;11.598;2023-01-15T12:16:13;98109.94;;;22.14;27.74
51999;BME280;38015;50.924;11.598;2023-01-15T12:18:51;98114.00;;;22.15;27.71
51999;BME280;38015;50.924;11.598;2023-01-15T12:21:17;98104.00;;;22.11;27.75
51999;BME280;38015;50.924;11.598;2023-01-15T12:26:15;98094.66;;;22.18;27.60
51999;BME280;38015;50.924;11.598;2023-01-15T12:28:39;98098.06;;;22.12;27.66
51999;BME280;38015;50.924;11.598;2023-01-15T12:31:11;98080.64;;;22.19;27.57
51999;BME280;38015;50.924;11.598;2023-01-15T12:33:44;98096.56;;;22.04;27.83
51999;BME280;38015;50.924;11.598;2023-01-15T12:36:13;98103.89;;;22.07;27.73
51999;BME280;38015;50.924;11.598;2023-01-15T12:38:45;98109.09;;;22.07;27.69
51999;BME280;38015;50.924;11.598;2023-01-15T12:41:12;98084.40;;;22.14;27.57
51999;BME280;38015;50.924;11.598;2023-01-15T12:43:43;98070.74;;;22.11;27.62
51999;BME280;38015;50.924;11.598;2023-01-15T12:46:14;98069.53;;;22.04;27.67
51999;BME280;38015;50.924;11.598;2023-01-15T12:48:47;98072.89;;;22.09;27.61
51999;BME280;38015;50.924;11.598;2023-01-15T12:51:19;98084.50;;;22.11;27.60
51999;BME280;38015;50.924;11.598;2023-01-15T12:53:45;98085.97;;;22.13;27.59
51999;BME280;38015;50.924;11.598;2023-01-15T12:56:18;98101.38;;;21.90;28.00
51999;BME280;38015;50.924;11.598;2023-01-15T12:58:48;98127.49;;;22.14;27.60
51999;BME280;38015;50.924;11.598;2023-01-15T13:01:20;98128.60;;;22.07;27.73
51999;BME280;38015;50.924;11.598;2023-01-15T13:03:50;98146.76;;;22.05;27.80
51999;BME280;38015;50.924;11.598;2023-01-15T13:06:16;98148.86;;;22.07;27.78
51999;BME280;38015;50.924;11.598;2023-01-15T13:08:54;98124.15;;;22.12;27.67
51999;BME280;38015;50.924;11.598;2023-01-15T13:11:16;98137.53;;;22.15;27.65